Time;durP1;ratioP1;P1;durP2;ratioP2;P2;SDS_P1;SDS_P2;PMS_P1;PMS_P2;Temp;Humidity;BMP_temperature;BMP_pressure;BME280_temperature;BME280_humidity;BME280_pressure;Samples;Min_cycle;Max_cycle;Signal;HPM_P1;HPM_P2
2021/12/03 00:01:59;;;;;;;;;;;;;;;0.74;85.27;95839.66;5006100;28;19966;-80
2021/12/03 00:04:25;;;;;;;;;;;;;;;0.65;84.82;95846.66;5009471;28;19954;-83
2021/12/03 00:06:51;;;;;;;;;;;;;;;0.53;85.55;95845.44;5014975;28;19980;-81
2021/12/03 00:09:18;;;;;;;;;;;;;;;0.48;86.23;95855.44;5031975;28;20488;-80
2021/12/03 00:11:44;;;;;;;;;;;;;;;0.45;85.93;95853.22;5006242;28;19960;-82
2021/12/03 00:14:10;;;;;;;;;;;;;;;0.44;86.71;95859.34;5019903;28;20411;-84
2021/12/03 00:16:35;;;;;;;;;;;;;;;0.45;86.53;95864.34;5011594;28;19962;-82
2021/12/03 00:19:01;;;;;;;;;;;;;;;0.47;86.56;95869.34;5008729;28;19978;-80
2021/12/03 00:21:27;;;;;;;;;;;;;;;0.51;87.44;95881.72;5030282;28;19963;-84
2021/12/03 00:23:53;;;;;;;;;;;;;;;0.55;87.31;95875.25;5004816;28;19972;-83
2021/12/03 00:26:20;;;;;;;;;;;;;;;0.58;86.61;95890.38;5024568;28;20005;-82
2021/12/03 00:28:46;;;;;;;;;;;;;;;0.52;85.67;95893.63;5026412;28;19962;-81
2021/12/03 00:31:12;;;;;;;;;;;;;;;0.52;86.69;95905.72;5018551;28;20039;-83
2021/12/03 00:33:38;;;;;;;;;;;;;;;0.56;87.68;95905.22;5024481;28;19961;-84
2021/12/03 00:36:06;;;;;;;;;;;;;;;0.58;87.88;95910.22;5029477;28;19961;-81
2021/12/03 00:38:37;;;;;;;;;;;;;;;0.64;86.82;95926.81;5013959;28;19956;-81
2021/12/03 00:41:08;;;;;;;;;;;;;;;0.65;86.64;95923.25;5038394;28;19966;-86
2021/12/03 00:43:37;;;;;;;;;;;;;;;0.69;86.36;95927.91;5013319;28;19973;-83
2021/12/03 00:46:08;;;;;;;;;;;;;;;0.72;86.71;95924.19;5009688;28;19958;-82
2021/12/03 00:48:34;;;;;;;;;;;;;;;0.74;86.99;95923.06;5030686;28;19957;-83
2021/12/03 00:51:00;;;;;;;;;;;;;;;0.77;87.41;95934.81;5012350;28;19953;-82
2021/12/03 00:53:26;;;;;;;;;;;;;;;0.78;86.43;95939.00;5032118;28;19947;-83
2021/12/03 00:55:52;;;;;;;;;;;;;;;0.73;86.62;95947.22;5029202;28;19967;-83
2021/12/03 00:58:18;;;;;;;;;;;;;;;0.72;85.74;95950.00;5002907;28;20000;-82
2021/12/03 01:00:44;;;;;;;;;;;;;;;0.68;85.79;95949.53;5021245;28;19957;-85
2021/12/03 01:03:10;;;;;;;;;;;;;;;0.69;85.92;95956.28;5018181;28;20077;-83
2021/12/03 01:05:36;;;;;;;;;;;;;;;0.74;86.80;95968.72;5003065;28;19950;-85
2021/12/03 01:08:02;;;;;;;;;;;;;;;0.75;87.03;95965.13;5024489;28;19987;-81
2021/12/03 01:10:28;;;;;;;;;;;;;;;0.77;87.46;95971.72;5031259;28;20329;-85
2021/12/03 01:12:54;;;;;;;;;;;;;;;0.81;87.45;95972.22;5029270;28;19954;-85
2021/12/03 01:15:22;;;;;;;;;;;;;;;0.81;86.28;95974.78;5008687;28;19961;-85
2021/12/03 01:17:48;;;;;;;;;;;;;;;0.69;85.24;95983.88;5010658;28;19958;-87
2021/12/03 01:20:14;;;;;;;;;;;;;;;0.59;86.19;95986.66;5022319;28;19962;-86
2021/12/03 01:22:41;;;;;;;;;;;;;;;0.52;86.29;95988.28;5032275;28;19971;-86
2021/12/03 01:25:08;;;;;;;;;;;;;;;0.48;86.02;95992.97;5024998;28;19978;-86
2021/12/03 01:27:34;;;;;;;;;;;;;;;0.48;86.42;95992.97;5014122;28;19984;-86
2021/12/03 01:30:00;;;;;;;;;;;;;;;0.48;86.23;95995.53;5007414;28;20431;-85
2021/12/03 01:32:26;;;;;;;;;;;;;;;0.52;86.48;95996.81;5025298;28;20318;-85
2021/12/03 01:34:52;;;;;;;;;;;;;;;0.55;85.93;96006.03;5030853;28;19959;-84
2021/12/03 01:37:18;;;;;;;;;;;;;;;0.57;86.31;96004.09;5011514;28;19963;-84
2021/12/03 01:39:44;;;;;;;;;;;;;;;0.60;86.10;96001.16;5005006;28;20036;-88
2021/12/03 01:42:10;;;;;;;;;;;;;;;0.55;85.27;95999.09;5030949;28;19965;-87
2021/12/03 01:44:35;;;;;;;;;;;;;;;0.49;85.55;96009.28;5028428;28;19958;-82
2021/12/03 01:47:01;;;;;;;;;;;;;;;0.47;85.76;96006.06;5008211;28;20046;-88
2021/12/03 01:49:27;;;;;;;;;;;;;;;0.48;85.76;96000.69;5026139;28;20319;-87
2021/12/03 01:51:53;;;;;;;;;;;;;;;0.51;86.12;96005.56;5025837;28;20451;-85
2021/12/03 01:54:19;;;;;;;;;;;;;;;0.57;86.58;96004.09;5007354;28;19962;-84
2021/12/03 01:56:45;;;;;;;;;;;;;;;0.58;86.54;96006.47;5002116;28;19959;-86
2021/12/03 01:59:11;;;;;;;;;;;;;;;0.62;86.72;96004.38;5025294;28;19958;-83
2021/12/03 02:01:37;;;;;;;;;;;;;;;0.64;86.51;96005.03;5026245;28;19965;-82
2021/12/03 02:04:03;;;;;;;;;;;;;;;0.65;85.54;96008.41;5008736;28;19974;-86
2021/12/03 02:06:30;;;;;;;;;;;;;;;0.65;85.72;96009.22;5006158;28;19986;-87
2021/12/03 02:08:56;;;;;;;;;;;;;;;0.67;86.08;96012.41;5028300;28;19982;-87
2021/12/03 02:11:23;;;;;;;;;;;;;;;0.68;86.45;96008.88;5022449;28;19954;-87
2021/12/03 02:13:49;;;;;;;;;;;;;;;0.69;86.26;96007.91;5006374;28;19965;-87
2021/12/03 02:16:16;;;;;;;;;;;;;;;0.66;85.06;96013.41;5008267;28;19957;-87
2021/12/03 02:18:42;;;;;;;;;;;;;;;0.63;85.08;96007.75;5020560;28;19950;-83
2021/12/03 02:21:10;;;;;;;;;;;;;;;0.62;85.90;96014.69;5034378;28;19950;-83
2021/12/03 02:23:36;;;;;;;;;;;;;;;0.63;86.51;96013.75;5010459;28;19965;-83
2021/12/03 02:26:02;;;;;;;;;;;;;;;0.64;86.55;96017.94;5022445;28;19974;-83
2021/12/03 02:28:30;;;;;;;;;;;;;;;0.68;86.74;96026.16;5029441;28;20350;-83
2021/12/03 02:30:56;;;;;;;;;;;;;;;0.68;87.02;96023.56;5024339;28;19949;-84
2021/12/03 02:33:23;;;;;;;;;;;;;;;0.69;86.82;96038.88;5027221;28;19954;-83
2021/12/03 02:35:49;;;;;;;;;;;;;;;0.71;87.03;96036.13;5007752;28;20331;-83
2021/12/03 02:38:17;;;;;;;;;;;;;;;0.71;86.90;96026.59;5002002;28;19965;-84
2021/12/03 02:40:44;;;;;;;;;;;;;;;0.71;86.86;96029.19;5010230;28;19958;-83
2021/12/03 02:43:10;;;;;;;;;;;;;;;0.72;87.01;96030.81;4993894;28;19971;-84
2021/12/03 02:45:35;;;;;;;;;;;;;;;0.72;86.98;96028.22;4999545;28;19996;-84
2021/12/03 02:48:02;;;;;;;;;;;;;;;0.73;87.00;96027.25;4991578;28;19968;-84
2021/12/03 02:50:28;;;;;;;;;;;;;;;0.73;86.76;96026.44;5023287;28;19972;-84
2021/12/03 02:52:54;;;;;;;;;;;;;;;0.74;86.97;96028.88;5012863;28;19951;-86
2021/12/03 02:55:20;;;;;;;;;;;;;;;0.73;86.68;96022.06;5021830;28;20328;-84
2021/12/03 02:57:46;;;;;;;;;;;;;;;0.72;86.44;96022.28;5005632;28;19954;-84
2021/12/03 03:00:15;;;;;;;;;;;;;;;0.71;85.81;96021.44;5003251;28;20435;-86
2021/12/03 03:02:41;;;;;;;;;;;;;;;0.72;85.55;96030.00;5027058;28;19972;-86
2021/12/03 03:05:12;;;;;;;;;;;;;;;0.69;85.47;96027.75;5009857;28;19949;-86
2021/12/03 03:07:41;;;;;;;;;;;;;;;0.68;85.17;96029.53;5024263;28;19987;-84
2021/12/03 03:10:10;;;;;;;;;;;;;;;0.66;85.06;96041.00;5025220;28;19955;-84
2021/12/03 03:12:36;;;;;;;;;;;;;;;0.65;85.15;96045.34;5005445;28;20406;-85
2021/12/03 03:15:02;;;;;;;;;;;;;;;0.64;85.01;96050.69;5011277;28;19952;-85
2021/12/03 03:17:29;;;;;;;;;;;;;;;0.63;85.28;96049.88;5005200;28;19959;-86
2021/12/03 03:19:56;;;;;;;;;;;;;;;0.61;85.30;96049.22;5023575;28;19956;-86
2021/12/03 03:22:23;;;;;;;;;;;;;;;0.62;85.29;96050.03;5023160;28;19960;-86
2021/12/03 03:24:50;;;;;;;;;;;;;;;0.63;85.08;96051.63;5023775;28;19952;-86
2021/12/03 03:27:16;;;;;;;;;;;;;;;0.63;85.12;96054.22;5001492;28;19961;-86
2021/12/03 03:29:44;;;;;;;;;;;;;;;0.62;85.18;96061.16;5007817;28;19957;-85
2021/12/03 03:32:11;;;;;;;;;;;;;;;0.61;84.89;96067.28;5008543;28;19951;-86
2021/12/03 03:34:37;;;;;;;;;;;;;;;0.57;83.72;96064.22;5027667;28;19963;-86
2021/12/03 03:37:03;;;;;;;;;;;;;;;0.51;84.25;96077.78;5019490;28;20287;-84
2021/12/03 03:39:29;;;;;;;;;;;;;;;0.50;84.68;96086.47;5022412;28;19961;-85
2021/12/03 03:41:55;;;;;;;;;;;;;;;0.49;84.81;96087.47;5007057;28;20410;-85
2021/12/03 03:44:21;;;;;;;;;;;;;;;0.50;85.08;96090.84;5026369;28;20058;-84
2021/12/03 03:46:52;;;;;;;;;;;;;;;0.52;84.87;96094.06;4995340;28;20311;-85
2021/12/03 03:49:19;;;;;;;;;;;;;;;0.53;85.17;96090.53;5017773;28;19967;-85
2021/12/03 03:51:46;;;;;;;;;;;;;;;0.54;84.75;96092.13;5004010;28;19958;-85
2021/12/03 03:54:12;;;;;;;;;;;;;;;0.54;85.08;96092.94;5015529;28;20395;-84
2021/12/03 03:56:38;;;;;;;;;;;;;;;0.54;84.77;96095.50;5025663;28;20052;-84
2021/12/03 03:59:04;;;;;;;;;;;;;;;0.55;84.91;96099.72;5009999;28;19955;-84
2021/12/03 04:01:30;;;;;;;;;;;;;;;0.56;85.01;96103.88;5006549;28;19959;-84
2021/12/03 04:03:56;;;;;;;;;;;;;;;0.59;85.30;96101.00;5027842;28;19958;-85
2021/12/03 04:06:22;;;;;;;;;;;;;;;0.60;85.42;96097.44;5004984;28;20303;-85
2021/12/03 04:08:48;;;;;;;;;;;;;;;0.60;85.32;96097.44;5024629;28;20412;-85
2021/12/03 04:11:15;;;;;;;;;;;;;;;0.59;84.83;96100.19;5007135;28;19950;-85
2021/12/03 04:13:42;;;;;;;;;;;;;;;0.57;84.87;96108.09;5014709;28;19957;-85
2021/12/03 04:16:08;;;;;;;;;;;;;;;0.55;85.12;96111.81;5028783;28;19956;-85
2021/12/03 04:18:34;;;;;;;;;;;;;;;0.54;85.00;96115.34;5012230;28;19952;-85
2021/12/03 04:21:00;;;;;;;;;;;;;;;0.50;84.96;96126.97;5030560;28;20008;-86
2021/12/03 04:23:26;;;;;;;;;;;;;;;0.49;85.81;96125.38;5008078;28;19977;-86
2021/12/03 04:25:52;;;;;;;;;;;;;;;0.50;84.88;96127.75;5003461;28;20015;-84
2021/12/03 04:28:18;;;;;;;;;;;;;;;0.49;84.65;96121.00;5026976;28;19956;-85
2021/12/03 04:30:44;;;;;;;;;;;;;;;0.49;84.22;96135.69;5019053;28;19946;-87
2021/12/03 04:33:11;;;;;;;;;;;;;;;0.48;84.28;96131.47;5036468;28;20057;-87
2021/12/03 04:35:37;;;;;;;;;;;;;;;0.47;84.66;96130.69;5030261;28;20429;-87
2021/12/03 04:38:03;;;;;;;;;;;;;;;0.49;84.68;96133.91;5025289;28;19954;-87
2021/12/03 04:40:30;;;;;;;;;;;;;;;0.49;84.29;96131.31;4992847;28;20331;-88
2021/12/03 04:42:58;;;;;;;;;;;;;;;0.49;84.02;96139.06;4993209;28;19959;-87
2021/12/03 04:45:25;;;;;;;;;;;;;;;0.50;84.30;96139.84;5023649;28;19948;-84
2021/12/03 04:47:52;;;;;;;;;;;;;;;0.50;84.45;96140.66;5016169;28;19950;-85
2021/12/03 04:50:19;;;;;;;;;;;;;;;0.53;84.26;96152.44;5006704;28;19953;-84
2021/12/03 04:52:45;;;;;;;;;;;;;;;0.55;84.74;96153.09;5020705;28;19962;-84
2021/12/03 04:55:11;;;;;;;;;;;;;;;0.58;84.69;96145.00;5007553;28;19960;-84
2021/12/03 04:57:40;;;;;;;;;;;;;;;0.57;84.31;96144.22;4996074;28;19956;-84
2021/12/03 05:00:09;;;;;;;;;;;;;;;0.56;83.46;96155.50;5026026;28;19953;-84
2021/12/03 05:02:34;;;;;;;;;;;;;;;0.54;84.00;96159.22;5015117;28;19964;-84
2021/12/03 05:05:05;;;;;;;;;;;;;;;0.53;83.85;96157.59;5007925;28;20325;-84
2021/12/03 05:10:04;;;;;;;;;;;;;;;0.53;83.75;96153.25;5035752;28;19969;-84
2021/12/03 05:12:30;;;;;;;;;;;;;;;0.54;83.68;96159.22;5028541;28;19971;-84
2021/12/03 05:14:56;;;;;;;;;;;;;;;0.51;82.19;96162.91;5028419;28;20423;-85
2021/12/03 05:17:22;;;;;;;;;;;;;;;0.50;83.52;96161.28;5005837;28;19960;-86
2021/12/03 05:19:48;;;;;;;;;;;;;;;0.51;83.77;96162.91;5034773;28;19963;-86
2021/12/03 05:22:14;;;;;;;;;;;;;;;0.53;84.01;96165.34;5017278;28;20059;-86
2021/12/03 05:24:42;;;;;;;;;;;;;;;0.54;84.00;96169.53;5007402;28;19979;-83
2021/12/03 05:27:08;;;;;;;;;;;;;;;0.56;83.70;96165.00;5022321;28;20312;-82
2021/12/03 05:29:34;;;;;;;;;;;;;;;0.57;83.84;96167.44;5027111;28;19951;-83
2021/12/03 05:32:00;;;;;;;;;;;;;;;0.57;83.31;96167.44;5017621;28;20394;-86
2021/12/03 05:34:27;;;;;;;;;;;;;;;0.54;83.48;96166.94;5021111;28;19952;-85
2021/12/03 05:36:53;;;;;;;;;;;;;;;0.55;84.04;96176.31;4993523;28;19961;-85
2021/12/03 05:39:19;;;;;;;;;;;;;;;0.55;84.41;96177.13;5025452;28;19965;-84
2021/12/03 05:41:45;;;;;;;;;;;;;;;0.56;84.31;96177.91;5035182;28;19948;-85
2021/12/03 05:44:12;;;;;;;;;;;;;;;0.56;84.17;96183.06;5016355;28;19966;-85
2021/12/03 05:46:38;;;;;;;;;;;;;;;0.55;83.99;96182.28;5028317;28;19971;-85
2021/12/03 05:49:04;;;;;;;;;;;;;;;0.55;83.59;96195.19;5015759;28;19948;-84
2021/12/03 05:51:30;;;;;;;;;;;;;;;0.55;83.10;96208.06;5030702;28;19955;-84
2021/12/03 05:53:56;;;;;;;;;;;;;;;0.53;82.14;96204.84;5007905;28;19961;-85
2021/12/03 05:56:22;;;;;;;;;;;;;;;0.49;81.87;96208.72;5001260;28;19957;-85
2021/12/03 05:58:49;;;;;;;;;;;;;;;0.46;82.57;96208.22;4996158;28;19957;-84
2021/12/03 06:01:16;;;;;;;;;;;;;;;0.43;83.01;96214.50;5023145;28;19955;-84
2021/12/03 06:03:42;;;;;;;;;;;;;;;0.41;81.56;96213.88;5012441;28;19967;-85
2021/12/03 06:06:08;;;;;;;;;;;;;;;0.37;81.26;96217.72;5024630;28;20448;-84
2021/12/03 06:08:34;;;;;;;;;;;;;;;0.34;81.62;96218.06;5028554;28;19967;-86
2021/12/03 06:11:00;;;;;;;;;;;;;;;0.29;79.96;96221.09;5013245;28;20455;-86
2021/12/03 06:13:26;;;;;;;;;;;;;;;0.24;80.14;96222.56;5004963;28;19961;-86
2021/12/03 06:15:52;;;;;;;;;;;;;;;0.21;79.25;96223.69;4987708;28;20408;-85
2021/12/03 06:18:18;;;;;;;;;;;;;;;0.13;77.18;96219.31;5000152;28;19967;-86
2021/12/03 06:20:44;;;;;;;;;;;;;;;0.08;77.65;96221.53;4985291;28;19951;-83
2021/12/03 06:23:10;;;;;;;;;;;;;;;0.07;80.32;96219.13;4992671;28;20027;-86
2021/12/03 06:25:36;;;;;;;;;;;;;;;0.09;80.35;96222.38;5012335;28;20304;-86
2021/12/03 06:28:02;;;;;;;;;;;;;;;0.10;80.68;96223.97;5021851;28;19960;-85
2021/12/03 06:30:28;;;;;;;;;;;;;;;0.47;98.66;96233.88;5022521;28;20416;-87
2021/12/03 06:32:54;;;;;;;;;;;;;;;1.12;100.00;96240.00;5027595;28;19955;-87
2021/12/03 06:35:20;;;;;;;;;;;;;;;1.69;100.00;96239.84;5029246;28;19954;-86
2021/12/03 06:37:46;;;;;;;;;;;;;;;2.18;100.00;96236.22;4999897;28;19974;-86
2021/12/03 06:40:14;;;;;;;;;;;;;;;2.58;100.00;96231.78;5007134;28;19955;-87
2021/12/03 06:42:40;;;;;;;;;;;;;;;2.92;95.69;96231.38;5029761;28;20462;-86
2021/12/03 06:45:07;;;;;;;;;;;;;;;3.19;91.82;96221.41;5025829;28;19979;-87
2021/12/03 06:47:33;;;;;;;;;;;;;;;3.28;85.97;96230.72;5000113;28;20316;-87
2021/12/03 06:49:59;;;;;;;;;;;;;;;3.04;75.24;96234.31;5026633;28;19987;-87
2021/12/03 06:52:25;;;;;;;;;;;;;;;2.62;74.70;96233.03;5008749;28;20474;-86
2021/12/03 06:54:58;;;;;;;;;;;;;;;2.07;69.95;96229.66;5024944;28;19957;-83
2021/12/03 06:57:23;;;;;;;;;;;;;;;1.66;75.86;96242.78;5023914;28;19951;-84
2021/12/03 06:59:50;;;;;;;;;;;;;;;1.44;77.40;96243.50;5005693;28;20012;-84
2021/12/03 07:02:15;;;;;;;;;;;;;;;1.26;77.59;96247.09;5006880;28;19955;-84
2021/12/03 07:04:43;;;;;;;;;;;;;;;1.15;78.95;96260.31;5010321;28;20444;-85
2021/12/03 07:07:10;;;;;;;;;;;;;;;1.06;78.57;96262.09;5008067;28;19982;-84
2021/12/03 07:09:36;;;;;;;;;;;;;;;0.97;79.29;96263.09;5018898;28;20078;-81
2021/12/03 07:12:02;;;;;;;;;;;;;;;0.91;78.90;96263.75;5007464;28;19950;-85
2021/12/03 07:14:28;;;;;;;;;;;;;;;0.85;78.13;96267.75;5007674;28;19956;-84
2021/12/03 07:16:54;;;;;;;;;;;;;;;0.75;78.27;96275.66;5006981;28;20004;-82
2021/12/03 07:19:20;;;;;;;;;;;;;;;0.68;78.22;96258.41;5022538;28;19955;-83
2021/12/03 07:21:46;;;;;;;;;;;;;;;0.63;76.76;96268.38;4987365;28;19968;-84
2021/12/03 07:24:12;;;;;;;;;;;;;;;0.56;77.86;96274.19;5026597;28;20423;-85
2021/12/03 07:26:38;;;;;;;;;;;;;;;0.53;78.85;96277.09;4990368;28;19954;-85
2021/12/03 07:29:04;;;;;;;;;;;;;;;0.40;75.69;96274.97;5008159;28;20378;-84
2021/12/03 07:31:30;;;;;;;;;;;;;;;0.30;75.25;96283.81;5022913;28;19950;-85
2021/12/03 07:33:56;;;;;;;;;;;;;;;0.26;76.97;96287.69;4990782;28;20485;-85
2021/12/03 07:36:22;;;;;;;;;;;;;;;0.25;77.02;96286.84;5010423;28;19952;-84
2021/12/03 07:38:48;;;;;;;;;;;;;;;0.28;78.51;96288.34;5022326;28;19964;-84
2021/12/03 07:41:14;;;;;;;;;;;;;;;0.28;78.07;96294.28;5004157;28;20042;-84
2021/12/03 07:43:40;;;;;;;;;;;;;;;0.28;77.12;96291.72;5022784;28;20012;-84
2021/12/03 07:46:09;;;;;;;;;;;;;;;0.29;77.67;96284.78;5011264;28;19958;-84
2021/12/03 07:48:36;;;;;;;;;;;;;;;0.32;77.23;96297.38;4997538;28;19964;-84
2021/12/03 07:51:02;;;;;;;;;;;;;;;0.34;78.69;96295.44;5007816;28;19948;-84
2021/12/03 07:53:28;;;;;;;;;;;;;;;0.41;79.31;96293.84;5006452;28;19955;-83
2021/12/03 07:55:55;;;;;;;;;;;;;;;0.54;78.21;96301.91;5010221;28;19999;-82
2021/12/03 07:58:21;;;;;;;;;;;;;;;0.67;76.99;96296.28;5009660;28;19968;-82
2021/12/03 08:00:47;;;;;;;;;;;;;;;1.02;77.53;96307.28;5001095;28;20054;-83
2021/12/03 08:03:16;;;;;;;;;;;;;;;1.48;76.04;96305.00;4998425;28;20410;-83
2021/12/03 08:05:42;;;;;;;;;;;;;;;1.74;75.93;96304.81;5010183;28;19978;-84
2021/12/03 08:08:08;;;;;;;;;;;;;;;1.72;74.90;96300.75;5008813;28;19980;-83
2021/12/03 08:10:34;;;;;;;;;;;;;;;1.60;72.74;96300.31;5010814;28;19983;-83
2021/12/03 08:13:01;;;;;;;;;;;;;;;1.49;74.01;96308.38;5029152;28;19961;-84
2021/12/03 08:15:27;;;;;;;;;;;;;;;1.73;75.12;96305.75;4986318;28;19979;-83
2021/12/03 08:17:53;;;;;;;;;;;;;;;1.97;74.50;96302.28;5007604;28;20004;-83
2021/12/03 08:20:19;;;;;;;;;;;;;;;2.16;73.60;96298.50;5012390;28;19952;-83
2021/12/03 08:22:45;;;;;;;;;;;;;;;2.38;72.04;96303.91;5011908;28;19962;-83
2021/12/03 08:25:11;;;;;;;;;;;;;;;2.34;68.84;96293.06;5005492;28;20454;-83
2021/12/03 08:27:37;;;;;;;;;;;;;;;2.19;70.74;96305.13;5010297;28;20069;-83
2021/12/03 08:30:04;;;;;;;;;;;;;;;2.01;71.65;96303.56;5011031;28;19953;-83
2021/12/03 08:32:30;;;;;;;;;;;;;;;2.00;68.56;96294.19;5025456;28;20333;-83
2021/12/03 08:34:57;;;;;;;;;;;;;;;1.90;71.33;96306.50;5023173;28;20303;-83
2021/12/03 08:37:23;;;;;;;;;;;;;;;1.81;70.32;96307.53;5010140;28;19955;-83
2021/12/03 08:39:51;;;;;;;;;;;;;;;1.67;72.97;96306.41;5009838;28;20317;-83
2021/12/03 08:42:18;;;;;;;;;;;;;;;1.52;67.76;96295.94;5011041;28;19979;-84
2021/12/03 08:44:45;;;;;;;;;;;;;;;1.42;72.11;96300.50;5026131;28;19961;-83
2021/12/03 08:47:13;;;;;;;;;;;;;;;1.50;71.88;96303.06;5008336;28;20339;-83
2021/12/03 08:49:47;;;;;;;;;;;;;;;1.40;70.66;96303.22;5025662;28;19965;-83
2021/12/03 08:54:50;;;;;;;;;;;;;;;1.29;74.14;96300.19;5026636;28;19955;-83
2021/12/03 08:57:17;;;;;;;;;;;;;;;1.29;71.78;96298.41;5003854;28;19981;-83
2021/12/03 08:59:46;;;;;;;;;;;;;;;1.17;72.01;96310.84;5005011;28;19958;-83
2021/12/03 09:02:12;;;;;;;;;;;;;;;1.40;73.91;96310.19;5026500;28;20423;-83
2021/12/03 09:04:38;;;;;;;;;;;;;;;1.50;73.39;96310.00;5010508;28;19964;-83
2021/12/03 09:07:07;;;;;;;;;;;;;;;1.43;73.82;96312.44;5029229;28;19978;-83
2021/12/03 09:09:33;;;;;;;;;;;;;;;1.33;72.79;96311.81;4989667;28;19975;-83
2021/12/03 09:11:59;;;;;;;;;;;;;;;1.31;72.38;96316.34;5023285;28;20441;-83
2021/12/03 09:17:19;;;;;;;;;;;;;;;1.20;74.98;96326.03;5011799;28;19963;-82
2021/12/03 09:20:06;;;;;;;;;;;;;;;1.35;73.62;96322.78;4989925;28;19956;-82
2021/12/03 09:24:58;;;;;;;;;;;;;;;1.65;74.70;96329.03;5008394;28;19976;-82
2021/12/03 09:27:24;;;;;;;;;;;;;;;1.76;73.64;96330.47;5009299;28;19957;-81
2021/12/03 09:29:53;;;;;;;;;;;;;;;1.91;74.49;96328.00;5021924;28;19959;-80
2021/12/03 09:32:25;;;;;;;;;;;;;;;2.02;73.81;96327.66;4993413;28;19963;-80
2021/12/03 09:34:51;;;;;;;;;;;;;;;1.95;72.42;96331.88;5009253;28;19957;-80
2021/12/03 09:37:17;;;;;;;;;;;;;;;1.76;70.49;96331.25;5011349;28;20438;-82
2021/12/03 09:39:45;;;;;;;;;;;;;;;1.59;71.63;96324.53;5011781;28;20330;-82
2021/12/03 09:42:12;;;;;;;;;;;;;;;1.55;72.26;96318.88;4986313;28;19963;-82
2021/12/03 09:44:44;;;;;;;;;;;;;;;1.61;71.57;96317.41;5006038;28;19964;-82
2021/12/03 09:47:10;;;;;;;;;;;;;;;1.53;73.64;96314.84;5028046;28;20385;-83
2021/12/03 09:49:37;;;;;;;;;;;;;;;1.60;71.80;96315.81;5009162;28;19960;-82
2021/12/03 09:55:13;;;;;;;;;;;;;;;1.68;71.64;96315.81;5007476;28;19950;-82
2021/12/03 09:57:45;;;;;;;;;;;;;;;1.59;72.78;96314.97;5006094;28;20418;-83
2021/12/03 10:02:59;;;;;;;;;;;;;;;1.67;70.75;96314.19;5006522;28;19962;-82
2021/12/03 10:13:38;;;;;;;;;;;;;;;1.52;72.59;96311.47;5010819;28;19960;-83
2021/12/03 10:18:58;;;;;;;;;;;;;;;1.88;71.32;96307.66;5023777;28;19953;-83
2021/12/03 10:33:30;;;;;;;;;;;;;;;2.47;68.85;96276.19;5006276;28;19948;-82
2021/12/03 10:54:22;;;;;;;;;;;;;;;3.48;73.69;96284.63;5027517;28;19957;-82
2021/12/03 10:57:34;;;;;;;;;;;;;;;3.34;65.16;96274.06;5026793;28;19953;-82
2021/12/03 11:00:18;;;;;;;;;;;;;;;3.14;66.26;96280.72;5019261;28;19964;-82
2021/12/03 11:03:22;;;;;;;;;;;;;;;2.99;69.00;96276.31;5024540;28;19965;-82
2021/12/03 11:10:59;;;;;;;;;;;;;;;2.72;68.11;96258.72;5019293;28;19964;-82
2021/12/03 11:30:20;;;;;;;;;;;;;;;2.44;68.76;96239.31;5021102;28;19954;-82
2021/12/03 11:38:56;;;;;;;;;;;;;;;2.18;69.41;96242.25;5006397;28;19969;-82
2021/12/03 13:12:06;;;;;;;;;;;;;;;2.31;68.12;96156.28;5026760;28;20346;-81
2021/12/03 14:07:38;;;;;;;;;;;;;;;2.04;70.20;96118.81;5023337;28;19991;-81
2021/12/03 14:10:14;;;;;;;;;;;;;;;2.06;70.00;96116.03;5025318;28;19963;-81
2021/12/03 14:56:38;;;;;;;;;;;;;;;1.96;72.06;96088.63;5025723;28;19962;-82
2021/12/03 14:59:16;;;;;;;;;;;;;;;1.92;70.95;96074.44;5000887;28;19961;-81
2021/12/03 15:02:05;;;;;;;;;;;;;;;1.88;71.78;96074.94;5005933;28;19972;-81
2021/12/03 15:07:35;;;;;;;;;;;;;;;1.83;72.92;96084.03;4955430;28;19981;-82
2021/12/03 15:10:05;;;;;;;;;;;;;;;1.83;72.56;96078.06;5010788;28;19962;-81
2021/12/03 15:18:38;;;;;;;;;;;;;;;2.73;77.04;96084.25;5024661;28;19974;-82
2021/12/03 15:32:00;;;;;;;;;;;;;;;1.91;72.57;96070.25;5024560;28;19961;-81
2021/12/03 16:03:54;;;;;;;;;;;;;;;1.69;72.65;96058.91;5027755;28;19953;-81
2021/12/03 16:06:39;;;;;;;;;;;;;;;1.55;72.50;96057.06;5025034;28;19975;-80
2021/12/03 16:09:18;;;;;;;;;;;;;;;1.41;72.97;96048.28;5003327;28;19964;-81
2021/12/03 16:11:59;;;;;;;;;;;;;;;1.30;72.51;96040.88;5010481;28;19970;-80
2021/12/03 16:20:02;;;;;;;;;;;;;;;1.08;74.09;96045.84;5008631;28;19957;-81
2021/12/03 16:25:57;;;;;;;;;;;;;;;1.02;74.51;96049.09;5011447;28;19953;-80
2021/12/03 16:52:43;;;;;;;;;;;;;;;0.97;76.05;96015.22;5026166;28;19966;-80
2021/12/03 16:55:04;;;;;;;;;;;;;;;0.96;76.24;96022.16;5025398;28;19957;-80
2021/12/03 16:57:32;;;;;;;;;;;;;;;0.97;76.18;96018.63;5013820;28;20074;-80
2021/12/03 17:00:00;;;;;;;;;;;;;;;0.94;76.23;96018.94;5026624;28;19954;-80
2021/12/03 17:02:35;;;;;;;;;;;;;;;0.91;76.43;96023.66;5029311;28;19958;-80
2021/12/03 17:05:25;;;;;;;;;;;;;;;0.92;76.63;96017.50;5007731;28;19957;-81
2021/12/03 17:13:07;;;;;;;;;;;;;;;0.86;75.46;96000.94;4980857;28;20400;-80
2021/12/03 17:27:26;;;;;;;;;;;;;;;0.62;75.25;95999.22;4986599;28;19970;-81
2021/12/03 17:51:14;;;;;;;;;;;;;;;0.46;74.27;95937.34;4985211;28;19969;-81
2021/12/03 17:53:55;;;;;;;;;;;;;;;0.42;74.23;95926.59;4983258;28;19962;-81
2021/12/03 17:56:25;;;;;;;;;;;;;;;0.40;73.85;95929.31;4990524;28;20426;-81
2021/12/03 17:59:06;;;;;;;;;;;;;;;0.34;74.01;95930.00;4979039;28;20401;-81
2021/12/03 18:01:46;;;;;;;;;;;;;;;0.33;74.30;95928.38;4994578;28;19957;-81
2021/12/03 18:04:22;;;;;;;;;;;;;;;0.33;74.55;95919.84;4986841;28;20065;-81
2021/12/03 18:07:00;;;;;;;;;;;;;;;0.30;73.71;95913.25;4977511;28;19995;-81
2021/12/03 18:50:05;;;;;;;;;;;;;;;0.43;73.92;95871.44;4985306;28;20337;-82
2021/12/03 18:53:18;;;;;;;;;;;;;;;0.42;73.69;95858.69;4990514;28;19959;-82
2021/12/03 18:55:46;;;;;;;;;;;;;;;0.44;74.50;95859.34;4982893;28;19956;-82
2021/12/03 18:58:16;;;;;;;;;;;;;;;0.44;74.47;95862.72;4982006;28;19956;-81
2021/12/03 19:00:45;;;;;;;;;;;;;;;0.47;74.45;95872.72;4984282;28;20328;-82
2021/12/03 19:06:04;;;;;;;;;;;;;;;0.50;74.20;95867.19;4982614;28;19964;-80
2021/12/03 19:11:23;;;;;;;;;;;;;;;0.52;74.34;95861.88;4987111;28;19954;-80
2021/12/03 19:13:50;;;;;;;;;;;;;;;0.48;73.82;95843.34;5004228;28;20061;-80
2021/12/03 19:16:17;;;;;;;;;;;;;;;0.46;73.56;95842.72;4982839;28;19953;-80
2021/12/03 19:18:45;;;;;;;;;;;;;;;0.45;74.16;95833.38;4978451;28;19982;-80
2021/12/03 19:21:15;;;;;;;;;;;;;;;0.44;74.59;95826.59;4985074;28;20395;-80
2021/12/03 19:23:41;;;;;;;;;;;;;;;0.44;73.96;95834.34;4979279;28;19955;-80
2021/12/03 19:26:07;;;;;;;;;;;;;;;0.43;74.41;95822.44;4985322;28;19967;-80
2021/12/03 19:28:39;;;;;;;;;;;;;;;0.43;74.34;95821.63;4988753;28;20411;-80
2021/12/03 19:31:06;;;;;;;;;;;;;;;0.45;75.04;95817.91;4988111;28;19951;-81
2021/12/03 19:33:40;;;;;;;;;;;;;;;0.45;74.88;95825.66;4992671;28;19960;-80
2021/12/03 19:36:06;;;;;;;;;;;;;;;0.45;74.86;95830.00;5003739;28;19953;-80
2021/12/03 19:38:35;;;;;;;;;;;;;;;0.41;75.30;95821.78;5006212;28;19963;-80
2021/12/03 19:41:10;;;;;;;;;;;;;;;0.40;75.37;95820.19;5005172;28;19971;-80
2021/12/03 19:43:55;;;;;;;;;;;;;;;0.43;75.59;95808.72;4988328;28;20336;-80
2021/12/03 19:46:33;;;;;;;;;;;;;;;0.43;75.69;95811.31;4986180;28;19968;-80
2021/12/03 19:51:44;;;;;;;;;;;;;;;0.46;75.78;95780.81;4986720;28;19976;-81
2021/12/03 19:54:13;;;;;;;;;;;;;;;0.46;75.39;95760.16;4974754;28;19961;-81
2021/12/03 19:56:40;;;;;;;;;;;;;;;0.46;75.35;95762.75;4988684;28;20315;-81
2021/12/03 19:59:06;;;;;;;;;;;;;;;0.45;75.74;95758.56;4985811;28;19959;-80
2021/12/03 20:01:34;;;;;;;;;;;;;;;0.45;75.19;95763.72;4988601;28;19965;-80
2021/12/03 20:04:00;;;;;;;;;;;;;;;0.45;75.24;95762.94;4985820;28;20409;-80
2021/12/03 20:06:27;;;;;;;;;;;;;;;0.45;75.23;95774.06;5001719;28;20002;-81
2021/12/03 20:08:58;;;;;;;;;;;;;;;0.47;75.53;95766.16;4984269;28;19968;-80
2021/12/03 20:11:37;;;;;;;;;;;;;;;0.48;75.50;95763.38;4970782;28;19962;-80
2021/12/03 20:14:05;;;;;;;;;;;;;;;0.50;75.04;95758.06;4991239;28;20054;-80
2021/12/03 20:27:40;;;;;;;;;;;;;;;0.43;74.59;95731.34;4987207;28;20422;-80
2021/12/03 20:30:14;;;;;;;;;;;;;;;0.45;74.59;95740.53;4970091;28;19966;-80
2021/12/03 20:32:47;;;;;;;;;;;;;;;0.44;74.21;95738.91;4998194;28;19955;-80
2021/12/03 20:37:51;;;;;;;;;;;;;;;0.45;74.58;95739.72;4985789;28;19955;-80
2021/12/03 20:40:24;;;;;;;;;;;;;;;0.46;74.26;95725.84;4987287;28;19955;-79